createdAt,value
2022-11-25T00:00:02.197Z,4.78
2022-11-25T00:02:43.325Z,4.50
2022-11-25T00:05:10.137Z,4.28
2022-11-25T00:07:37.218Z,4.30
2022-11-25T00:10:04.998Z,4.22
2022-11-25T00:12:31.718Z,4.20
2022-11-25T00:14:58.322Z,4.20
2022-11-25T00:17:25.091Z,3.70
2022-11-25T00:19:51.763Z,3.95
2022-11-25T00:22:18.495Z,4.10
2022-11-25T00:24:45.104Z,3.67
2022-11-25T00:27:11.789Z,3.45
2022-11-25T00:29:38.418Z,4.05
2022-11-25T00:32:05.047Z,3.50
2022-11-25T00:34:33.110Z,3.40
2022-11-25T00:37:00.027Z,3.28
2022-11-25T00:39:27.201Z,3.30
2022-11-25T00:42:12.619Z,3.30
2022-11-25T00:44:40.751Z,2.85
2022-11-25T00:47:12.187Z,3.65
2022-11-25T00:49:40.537Z,3.28
2022-11-25T00:52:08.464Z,3.05
2022-11-25T00:54:36.163Z,3.00
2022-11-25T00:57:03.189Z,3.30
2022-11-25T00:59:30.377Z,3.08
2022-11-25T01:01:59.234Z,3.10
2022-11-25T01:04:26.498Z,2.80
2022-11-25T01:06:54.235Z,2.80
2022-11-25T01:09:21.579Z,2.78
2022-11-25T01:11:51.092Z,3.17
2022-11-25T01:14:20.367Z,2.90
2022-11-25T01:16:48.028Z,2.70
2022-11-25T01:19:15.419Z,2.75
2022-11-25T01:21:42.863Z,2.63
2022-11-25T01:24:13.791Z,2.67
2022-11-25T01:26:40.926Z,2.90
2022-11-25T01:29:11.689Z,2.75
2022-11-25T01:31:38.462Z,2.70
2022-11-25T01:34:08.197Z,2.67
2022-11-25T01:36:35.456Z,2.70
2022-11-25T01:39:02.840Z,2.75
2022-11-25T01:41:31.673Z,2.50
2022-11-25T01:44:07.585Z,2.53
2022-11-25T01:46:46.509Z,2.80
2022-11-25T01:49:22.276Z,2.58
2022-11-25T01:52:01.179Z,2.40
2022-11-25T01:54:30.828Z,2.38
2022-11-25T01:57:01.451Z,2.63
2022-11-25T01:59:28.683Z,2.63
2022-11-25T02:01:56.817Z,2.60
2022-11-25T02:04:26.039Z,2.80
2022-11-25T02:06:57.406Z,2.50
2022-11-25T02:09:24.824Z,2.45
2022-11-25T02:11:52.048Z,2.30
2022-11-25T02:14:19.936Z,2.58
2022-11-25T02:16:46.651Z,2.25
2022-11-25T02:19:36.322Z,2.30
2022-11-25T02:22:05.365Z,2.60
2022-11-25T02:24:43.334Z,2.60
2022-11-25T02:27:09.976Z,2.30
2022-11-25T02:29:37.802Z,2.40
2022-11-25T02:32:06.049Z,2.30
2022-11-25T02:34:32.906Z,2.30
2022-11-25T02:37:00.045Z,2.30
2022-11-25T02:39:28.095Z,2.10
2022-11-25T02:41:57.414Z,2.28
2022-11-25T02:44:24.797Z,2.40
2022-11-25T02:46:53.383Z,2.30
2022-11-25T02:49:20.087Z,2.00
2022-11-25T02:51:46.994Z,2.20
2022-11-25T02:54:15.732Z,2.35
2022-11-25T02:56:42.786Z,2.30
2022-11-25T02:59:09.619Z,2.20
2022-11-25T03:01:38.539Z,2.35
2022-11-25T03:04:07.430Z,2.30
2022-11-25T03:06:34.197Z,2.30
2022-11-25T03:09:01.065Z,2.20
2022-11-25T03:11:46.563Z,2.40
2022-11-25T03:14:14.462Z,2.28
2022-11-25T03:16:42.560Z,2.00
2022-11-25T03:19:09.330Z,2.22
2022-11-25T03:21:36.443Z,2.20
2022-11-25T03:24:03.354Z,2.10
2022-11-25T03:26:30.099Z,2.30
2022-11-25T03:28:56.802Z,2.22
2022-11-25T03:31:23.680Z,2.10
2022-11-25T03:33:50.373Z,2.10
2022-11-25T03:36:17.115Z,2.17
2022-11-25T03:38:43.784Z,2.10
2022-11-25T03:41:10.534Z,2.08
2022-11-25T03:43:37.960Z,2.05
2022-11-25T03:46:04.733Z,2.10
2022-11-25T03:48:31.475Z,2.20
2022-11-25T03:50:58.129Z,2.22
2022-11-25T03:53:27.037Z,2.10
2022-11-25T03:55:53.645Z,2.10
2022-11-25T03:58:22.525Z,1.95
2022-11-25T04:00:50.897Z,2.05
2022-11-25T04:03:17.607Z,2.15
2022-11-25T04:05:44.716Z,1.77
2022-11-25T04:08:13.772Z,2.10
2022-11-25T04:10:40.954Z,2.10
2022-11-25T04:13:09.726Z,1.90
2022-11-25T04:15:47.945Z,2.10
2022-11-25T04:18:16.885Z,1.80
2022-11-25T04:20:43.900Z,2.00
2022-11-25T04:23:13.284Z,1.77
2022-11-25T04:25:45.605Z,1.73
2022-11-25T04:28:19.232Z,2.10
2022-11-25T04:30:45.955Z,1.80
2022-11-25T04:33:12.780Z,1.90
2022-11-25T04:35:39.820Z,1.90
2022-11-25T04:38:07.857Z,1.80
2022-11-25T04:40:35.582Z,1.70
2022-11-25T04:43:17.879Z,1.90
2022-11-25T04:46:13.638Z,1.83
2022-11-25T04:48:43.162Z,1.95
2022-11-25T04:51:09.863Z,1.83
2022-11-25T04:53:36.725Z,1.70
2022-11-25T04:56:03.637Z,1.80
2022-11-25T04:58:54.770Z,1.80
2022-11-25T05:01:21.555Z,1.75
2022-11-25T05:03:55.980Z,1.70
2022-11-25T05:06:25.313Z,1.70
2022-11-25T05:08:52.289Z,1.55
2022-11-25T05:11:20.310Z,1.60
2022-11-25T05:13:47.313Z,1.63
2022-11-25T05:16:13.993Z,1.80
2022-11-25T05:18:41.084Z,1.67
2022-11-25T05:21:07.850Z,1.65
2022-11-25T05:23:38.687Z,1.63
2022-11-25T05:26:05.566Z,1.58
2022-11-25T05:28:43.866Z,1.63
2022-11-25T05:31:11.891Z,1.40
2022-11-25T05:33:38.785Z,1.40
2022-11-25T05:36:07.306Z,1.65
2022-11-25T05:38:40.697Z,1.42
2022-11-25T05:41:11.193Z,1.50
2022-11-25T05:43:39.952Z,1.65
2022-11-25T05:46:10.201Z,1.58
2022-11-25T05:48:43.017Z,1.80
2022-11-25T05:51:09.750Z,1.60
2022-11-25T05:53:37.578Z,1.80
2022-11-25T05:56:06.667Z,1.70
2022-11-25T05:58:55.057Z,1.52
2022-11-25T06:01:25.178Z,1.52
2022-11-25T06:03:51.866Z,1.50
2022-11-25T06:06:18.682Z,1.67
2022-11-25T06:08:45.843Z,1.50
2022-11-25T06:11:15.746Z,1.50
2022-11-25T06:13:44.068Z,1.40
2022-11-25T06:16:17.159Z,1.50
2022-11-25T06:18:47.782Z,1.50
2022-11-25T06:21:15.045Z,1.50
2022-11-25T06:23:45.233Z,1.63
2022-11-25T06:26:20.156Z,1.30
2022-11-25T06:28:48.003Z,1.70
2022-11-25T06:31:19.440Z,1.70
2022-11-25T06:33:56.406Z,1.58
2022-11-25T06:36:23.185Z,1.48
2022-11-25T06:38:54.565Z,1.70
2022-11-25T06:41:22.776Z,1.30
2022-11-25T06:43:49.788Z,1.63
2022-11-25T06:46:24.435Z,1.60
2022-11-25T06:48:52.580Z,1.40
2022-11-25T06:51:19.315Z,1.67
2022-11-25T06:53:46.052Z,1.50
2022-11-25T06:56:19.072Z,1.73
2022-11-25T06:58:47.201Z,1.65
2022-11-25T07:01:23.000Z,1.73
2022-11-25T07:03:58.633Z,1.70
2022-11-25T07:06:25.538Z,1.77
2022-11-25T07:08:52.228Z,1.60
2022-11-25T07:11:21.518Z,1.70
2022-11-25T07:13:51.214Z,1.48
2022-11-25T07:16:17.865Z,1.55
2022-11-25T07:18:44.659Z,1.52
2022-11-25T07:21:16.013Z,1.50
2022-11-25T07:23:43.934Z,1.58
2022-11-25T07:26:22.394Z,1.40
2022-11-25T07:28:50.242Z,1.38
2022-11-25T07:31:24.396Z,1.80
2022-11-25T07:33:59.246Z,1.40
2022-11-25T07:36:26.363Z,1.52
2022-11-25T07:38:53.527Z,1.38
2022-11-25T07:41:22.762Z,1.50
2022-11-25T07:43:54.541Z,1.40
2022-11-25T07:46:32.261Z,1.60
2022-11-25T07:49:04.532Z,2.00
2022-11-25T07:51:36.719Z,1.73
2022-11-25T07:54:05.329Z,1.60
2022-11-25T07:56:33.974Z,1.70
2022-11-25T07:59:01.203Z,1.70
2022-11-25T08:01:28.008Z,1.77
2022-11-25T08:03:54.930Z,1.40
2022-11-25T08:06:26.691Z,1.60
2022-11-25T08:08:55.510Z,1.60
2022-11-25T08:11:29.817Z,1.45
2022-11-25T08:13:57.353Z,1.60
2022-11-25T08:16:29.011Z,1.60
2022-11-25T08:18:56.142Z,1.40
2022-11-25T08:21:22.826Z,1.50
2022-11-25T08:23:49.493Z,1.40
2022-11-25T08:26:22.950Z,1.50
2022-11-25T08:28:50.147Z,1.50
2022-11-25T08:31:25.344Z,1.52
2022-11-25T08:33:52.985Z,1.45
2022-11-25T08:36:20.489Z,1.50
2022-11-25T08:38:49.475Z,1.50
2022-11-25T08:41:19.194Z,1.50
2022-11-25T08:43:45.897Z,1.60
2022-11-25T08:46:15.557Z,1.50
2022-11-25T08:48:42.324Z,1.55
2022-11-25T08:51:15.316Z,1.60
2022-11-25T08:53:45.007Z,1.40
2022-11-25T08:56:12.130Z,1.45
2022-11-25T08:58:39.001Z,1.58
2022-11-25T09:01:06.757Z,1.70
2022-11-25T09:03:35.108Z,1.60
2022-11-25T09:06:02.474Z,1.60
2022-11-25T09:08:30.265Z,1.60
2022-11-25T09:10:57.473Z,1.88
2022-11-25T09:13:24.389Z,1.40
2022-11-25T09:15:51.158Z,1.40
2022-11-25T09:18:20.125Z,1.75
2022-11-25T09:20:47.439Z,1.50
2022-11-25T09:23:14.077Z,1.60
2022-11-25T09:25:40.809Z,1.70
2022-11-25T09:28:07.414Z,1.70
2022-11-25T09:30:34.092Z,1.52
2022-11-25T09:33:00.710Z,1.63
2022-11-25T09:35:27.733Z,1.67
2022-11-25T09:37:54.386Z,1.63
2022-11-25T09:40:35.968Z,1.50
2022-11-25T09:43:59.524Z,1.70
2022-11-25T09:47:11.137Z,1.58
2022-11-25T09:50:00.344Z,1.40
2022-11-25T09:52:34.249Z,1.80
2022-11-25T09:55:17.926Z,1.50
2022-11-25T09:58:06.119Z,1.73
2022-11-25T10:00:38.706Z,1.63
2022-11-25T10:03:14.564Z,1.40
2022-11-25T10:05:56.499Z,1.30
2022-11-25T10:08:26.458Z,1.40
2022-11-25T10:11:04.119Z,1.40
2022-11-25T10:13:42.981Z,1.30
2022-11-25T10:16:19.354Z,1.45
2022-11-25T10:18:55.533Z,1.60
2022-11-25T10:21:22.096Z,1.33
2022-11-25T10:23:48.689Z,1.40
2022-11-25T10:26:17.223Z,1.40
2022-11-25T10:29:13.570Z,1.48
2022-11-25T10:31:42.908Z,1.23
2022-11-25T10:34:30.572Z,1.30
2022-11-25T10:36:59.032Z,1.60
2022-11-25T10:39:28.046Z,1.48
2022-11-25T10:42:07.184Z,1.23
2022-11-25T10:44:35.284Z,1.38
2022-11-25T10:47:21.616Z,1.35
2022-11-25T10:49:51.299Z,1.30
2022-11-25T10:52:21.293Z,1.33
2022-11-25T10:55:08.466Z,1.30
2022-11-25T10:57:35.371Z,1.40
2022-11-25T11:00:04.517Z,1.60
2022-11-25T11:02:41.033Z,1.45
2022-11-25T11:05:11.086Z,1.40
2022-11-25T11:07:40.889Z,1.25
2022-11-25T11:10:25.462Z,1.27
2022-11-25T11:13:02.774Z,1.40
2022-11-25T11:15:41.439Z,1.40
2022-11-25T11:18:25.849Z,1.40
2022-11-25T11:20:55.348Z,1.40
2022-11-25T11:23:22.611Z,1.33
2022-11-25T11:25:56.821Z,1.40
2022-11-25T11:28:29.049Z,1.23
2022-11-25T11:30:58.924Z,1.20
2022-11-25T11:33:56.714Z,1.30
2022-11-25T11:37:02.252Z,1.60
2022-11-25T11:39:50.780Z,1.45
2022-11-25T11:42:30.869Z,1.30
2022-11-25T11:45:05.930Z,1.58
2022-11-25T11:50:31.403Z,1.30
2022-11-25T11:53:05.105Z,1.38
2022-11-25T11:56:26.916Z,1.58
2022-11-25T11:58:59.341Z,1.33
2022-11-25T12:01:35.315Z,1.30
2022-11-25T12:04:17.161Z,1.35
2022-11-25T12:06:51.832Z,1.35
2022-11-25T12:09:20.744Z,1.45
2022-11-25T12:11:52.880Z,1.30
2022-11-25T12:14:38.291Z,1.40
2022-11-25T12:17:14.887Z,1.40
2022-11-25T12:20:22.581Z,1.30
2022-11-25T12:22:54.593Z,1.23
2022-11-25T12:25:24.046Z,1.30
2022-11-25T12:27:59.329Z,1.35
2022-11-25T12:30:33.028Z,1.27
2022-11-25T12:33:06.781Z,1.70
2022-11-25T12:35:43.463Z,1.38
2022-11-25T12:38:19.074Z,1.40
2022-11-25T12:40:50.130Z,1.40
2022-11-25T12:43:40.080Z,1.50
2022-11-25T12:46:30.007Z,1.50
2022-11-25T12:48:58.207Z,1.38
2022-11-25T12:51:50.784Z,1.35
2022-11-25T12:54:48.132Z,1.23
2022-11-25T12:57:20.660Z,1.20
2022-11-25T13:00:32.887Z,1.15
2022-11-25T13:02:52.120Z,1.20
2022-11-25T13:05:47.918Z,1.35
2022-11-25T13:11:16.871Z,1.30
2022-11-25T13:14:10.214Z,1.30
2022-11-25T13:16:37.536Z,1.30
2022-11-25T13:19:09.321Z,1.20
2022-11-25T13:21:35.864Z,1.30
2022-11-25T13:24:02.592Z,1.13
2022-11-25T13:26:33.709Z,1.27
2022-11-25T13:29:01.724Z,1.20
2022-11-25T13:31:58.770Z,1.42
2022-11-25T13:34:29.392Z,1.10
2022-11-25T13:37:00.708Z,1.00
2022-11-25T13:39:37.571Z,1.25
2022-11-25T13:42:26.139Z,1.20
2022-11-25T13:44:54.718Z,1.30
2022-11-25T13:47:39.100Z,1.50
2022-11-25T13:50:20.474Z,1.47
2022-11-25T13:52:56.909Z,1.45
2022-11-25T13:55:30.649Z,1.40
2022-11-25T13:58:03.480Z,1.42
2022-11-25T14:00:36.055Z,1.20
2022-11-25T14:03:21.154Z,1.40
2022-11-25T14:06:19.467Z,1.45
2022-11-25T14:08:56.323Z,1.48
2022-11-25T14:11:32.219Z,1.40
2022-11-25T14:14:06.948Z,1.38
2022-11-25T14:16:48.833Z,1.27
2022-11-25T14:22:25.393Z,1.50
2022-11-25T14:24:59.911Z,1.40
2022-11-25T14:27:29.635Z,1.48
2022-11-25T14:30:01.688Z,1.10
2022-11-25T14:32:45.727Z,1.38
2022-11-25T14:35:18.464Z,1.27
2022-11-25T14:37:49.171Z,1.35
2022-11-25T14:40:22.036Z,1.20
2022-11-25T14:42:51.228Z,2.53
2022-11-25T14:45:20.789Z,2.40
2022-11-25T14:47:47.374Z,2.30
2022-11-25T14:53:06.365Z,1.88
2022-11-25T14:55:32.979Z,1.90
2022-11-25T14:57:59.697Z,1.65
2022-11-25T15:00:26.451Z,1.83
2022-11-25T15:02:57.414Z,1.65
2022-11-25T15:05:27.195Z,1.77
2022-11-25T15:07:57.377Z,1.52
2022-11-25T15:10:44.227Z,1.80
2022-11-25T15:13:29.766Z,1.60
2022-11-25T15:16:35.311Z,1.52
2022-11-25T15:19:04.765Z,1.23
2022-11-25T15:22:07.004Z,1.63
2022-11-25T15:24:33.572Z,1.47
2022-11-25T15:27:02.861Z,1.30
2022-11-25T15:29:31.359Z,1.60
2022-11-25T15:31:59.349Z,1.75
2022-11-25T15:34:28.735Z,1.52
2022-11-25T15:36:55.374Z,1.65
2022-11-25T15:39:26.030Z,1.75
2022-11-25T15:41:56.133Z,1.70
2022-11-25T15:44:29.263Z,1.80
2022-11-25T15:47:30.593Z,2.20
2022-11-25T15:50:09.793Z,2.83
2022-11-25T15:52:38.195Z,3.78
2022-11-25T15:55:37.392Z,4.88
2022-11-25T15:58:13.096Z,6.15
2022-11-25T16:00:41.806Z,7.78
2022-11-25T16:03:21.730Z,9.32
2022-11-25T16:05:58.167Z,9.82
2022-11-25T16:08:38.910Z,10.18
2022-11-25T16:11:19.383Z,11.82
2022-11-25T16:13:50.258Z,12.55
2022-11-25T16:16:19.379Z,12.73
2022-11-25T16:18:57.051Z,12.90
2022-11-25T16:21:30.353Z,12.18
2022-11-25T16:23:59.335Z,12.52
2022-11-25T16:26:32.661Z,11.85
2022-11-25T16:29:01.259Z,11.80
2022-11-25T16:31:28.724Z,11.85
2022-11-25T16:34:13.322Z,10.93
2022-11-25T16:36:39.989Z,10.23
2022-11-25T16:39:06.632Z,10.15
2022-11-25T16:41:33.823Z,10.60
2022-11-25T16:44:03.624Z,10.75
2022-11-25T16:46:32.731Z,10.65
2022-11-25T16:49:04.324Z,10.85
2022-11-25T16:51:30.983Z,11.02
2022-11-25T16:53:57.598Z,11.43
2022-11-25T16:56:27.621Z,11.25
2022-11-25T16:58:54.985Z,11.52
2022-11-25T17:01:23.878Z,11.40
2022-11-25T17:03:50.511Z,11.05
2022-11-25T17:06:22.921Z,11.90
2022-11-25T17:08:50.033Z,11.30
2022-11-25T17:11:29.872Z,11.35
2022-11-25T17:13:58.448Z,10.68
2022-11-25T17:16:29.232Z,10.40
2022-11-25T17:18:57.638Z,9.55
2022-11-25T17:21:28.858Z,9.88
2022-11-25T17:24:00.705Z,9.43
2022-11-25T17:26:38.680Z,9.43
2022-11-25T17:29:08.678Z,8.98
2022-11-25T17:31:37.825Z,8.65
2022-11-25T17:34:04.815Z,9.05
2022-11-25T17:36:31.459Z,9.52
2022-11-25T17:38:58.100Z,8.20
2022-11-25T17:41:26.898Z,8.77
2022-11-25T17:43:54.445Z,8.93
2022-11-25T17:46:21.590Z,8.32
2022-11-25T17:48:48.333Z,8.32
2022-11-25T17:51:15.102Z,8.18
2022-11-25T17:53:41.786Z,8.23
2022-11-25T17:56:17.757Z,8.05
2022-11-25T17:58:44.602Z,8.00
2022-11-25T18:01:11.206Z,8.27
2022-11-25T18:03:37.878Z,8.43
2022-11-25T18:06:06.098Z,8.50
2022-11-25T18:08:32.951Z,8.15
2022-11-25T18:11:01.004Z,8.90
2022-11-25T18:13:27.619Z,8.75
2022-11-25T18:15:55.058Z,9.23
2022-11-25T18:18:24.237Z,8.80
2022-11-25T18:20:52.127Z,8.50
2022-11-25T18:23:19.598Z,9.05
2022-11-25T18:25:46.720Z,8.65
2022-11-25T18:28:19.194Z,8.77
2022-11-25T18:30:46.181Z,8.55
2022-11-25T18:33:14.014Z,8.55
2022-11-25T18:35:41.412Z,8.48
2022-11-25T18:38:09.358Z,8.32
2022-11-25T18:40:39.780Z,8.75
2022-11-25T18:43:07.550Z,8.68
2022-11-25T18:45:36.736Z,8.60
2022-11-25T18:48:20.661Z,7.75
2022-11-25T18:50:48.956Z,7.93
2022-11-25T18:53:15.757Z,8.75
2022-11-25T18:55:43.171Z,8.15
2022-11-25T18:58:24.261Z,8.60
2022-11-25T19:00:52.157Z,7.78
2022-11-25T19:03:25.234Z,7.38
2022-11-25T19:05:54.240Z,7.93
2022-11-25T19:08:21.126Z,7.55
2022-11-25T19:10:48.759Z,8.02
2022-11-25T19:13:22.332Z,6.82
2022-11-25T19:15:48.960Z,7.20
2022-11-25T19:18:19.673Z,8.00
2022-11-25T19:20:46.276Z,7.75
2022-11-25T19:23:28.817Z,8.90
2022-11-25T19:25:59.490Z,8.43
2022-11-25T19:28:26.345Z,7.93
2022-11-25T19:30:57.753Z,8.50
2022-11-25T19:33:28.429Z,8.00
2022-11-25T19:35:55.115Z,7.65
2022-11-25T19:38:25.880Z,7.80
2022-11-25T19:40:53.485Z,7.82
2022-11-25T19:43:20.584Z,7.20
2022-11-25T19:45:47.283Z,7.57
2022-11-25T19:48:18.609Z,7.60
2022-11-25T19:50:47.275Z,6.88
2022-11-25T19:53:19.459Z,7.53
2022-11-25T19:55:46.818Z,6.75
2022-11-25T19:58:14.098Z,7.07
2022-11-25T20:00:42.501Z,6.95
2022-11-25T20:03:22.216Z,6.72
2022-11-25T20:05:51.147Z,6.90
2022-11-25T20:08:28.718Z,6.90
2022-11-25T20:10:56.490Z,7.20
2022-11-25T20:13:24.472Z,7.25
2022-11-25T20:15:51.516Z,6.57
2022-11-25T20:18:20.556Z,6.65
2022-11-25T20:20:49.099Z,6.10
2022-11-25T20:23:24.031Z,6.22
2022-11-25T20:25:50.796Z,6.10
2022-11-25T20:28:20.865Z,6.32
2022-11-25T20:30:48.581Z,6.40
2022-11-25T20:33:17.697Z,6.15
2022-11-25T20:35:50.393Z,6.22
2022-11-25T20:38:24.164Z,5.80
2022-11-25T20:40:56.226Z,5.63
2022-11-25T20:43:38.760Z,5.68
2022-11-25T20:46:06.932Z,5.40
2022-11-25T20:48:35.272Z,5.53
2022-11-25T20:51:03.368Z,5.43
2022-11-25T20:53:32.311Z,5.43
2022-11-25T20:55:59.159Z,5.43
2022-11-25T20:58:29.332Z,4.90
2022-11-25T21:00:57.682Z,4.93
2022-11-25T21:03:25.822Z,5.13
2022-11-25T21:05:53.900Z,5.20
2022-11-25T21:08:24.621Z,4.82
2022-11-25T21:10:55.927Z,4.85
2022-11-25T21:13:28.320Z,4.75
2022-11-25T21:15:56.927Z,5.07
2022-11-25T21:18:24.554Z,4.68
2022-11-25T21:20:53.556Z,5.18
2022-11-25T21:23:22.928Z,4.40
2022-11-25T21:25:49.770Z,4.45
2022-11-25T21:28:19.055Z,4.70
2022-11-25T21:30:46.971Z,4.50
2022-11-25T21:33:14.392Z,4.60
2022-11-25T21:35:45.071Z,4.32
2022-11-25T21:38:25.132Z,4.25
2022-11-25T21:40:54.060Z,4.50
2022-11-25T21:43:29.292Z,4.18
2022-11-25T21:46:01.604Z,4.38
2022-11-25T21:48:29.530Z,4.28
2022-11-25T21:50:56.532Z,4.43
2022-11-25T21:53:23.412Z,4.30
2022-11-25T21:55:50.340Z,4.00
2022-11-25T21:58:22.350Z,4.25
2022-11-25T22:00:51.849Z,4.18
2022-11-25T22:03:20.005Z,4.47
2022-11-25T22:05:47.438Z,4.40
2022-11-25T22:08:14.094Z,4.30
2022-11-25T22:10:43.364Z,4.40
2022-11-25T22:13:24.345Z,4.28
2022-11-25T22:15:55.525Z,4.85
2022-11-25T22:18:29.547Z,4.30
2022-11-25T22:20:56.354Z,4.37
2022-11-25T22:23:23.054Z,4.28
2022-11-25T22:25:52.137Z,4.13
2022-11-25T22:28:21.545Z,4.20
2022-11-25T22:30:53.539Z,4.40
2022-11-25T22:33:22.532Z,4.00
2022-11-25T22:35:50.289Z,4.65
2022-11-25T22:38:18.138Z,4.07
2022-11-25T22:40:49.028Z,4.30
2022-11-25T22:43:18.254Z,4.35
2022-11-25T22:45:45.470Z,3.95
2022-11-25T22:48:17.735Z,4.38
2022-11-25T22:50:51.140Z,4.18
2022-11-25T22:53:18.963Z,4.30
2022-11-25T22:55:46.199Z,4.05
2022-11-25T22:58:14.150Z,4.40
2022-11-25T23:00:44.882Z,4.43
2022-11-25T23:03:17.842Z,4.28
2022-11-25T23:05:44.681Z,3.95
2022-11-25T23:08:17.197Z,4.28
2022-11-25T23:10:44.550Z,4.50
2022-11-25T23:13:11.657Z,3.78
2022-11-25T23:15:39.126Z,4.60
2022-11-25T23:18:12.368Z,4.25
2022-11-25T23:20:39.857Z,4.40
2022-11-25T23:23:32.777Z,4.32
2022-11-25T23:25:59.453Z,5.00
2022-11-25T23:28:26.088Z,4.40
2022-11-25T23:30:55.623Z,4.70
2022-11-25T23:33:38.401Z,4.30
2022-11-25T23:36:11.139Z,4.35
2022-11-25T23:38:50.457Z,4.00
2022-11-25T23:41:22.831Z,3.95
2022-11-25T23:43:50.005Z,4.45
2022-11-25T23:46:18.788Z,4.75
2022-11-25T23:48:51.049Z,4.38
2022-11-25T23:51:17.768Z,4.55
2022-11-25T23:53:44.379Z,4.10
2022-11-25T23:56:10.978Z,4.43
2022-11-25T23:58:37.739Z,4.20
